sensor_id;sensor_type;location;lat;lon;timestamp;P1;durP1;ratioP1;P2;durP2;ratioP2
67867;SDS011;54672;46.096;14.470;2022-11-27T00:00:19;46.45;;;15.82;;
67867;SDS011;54672;46.096;14.470;2022-11-27T00:02:45;45.22;;;14.85;;
67867;SDS011;54672;46.096;14.470;2022-11-27T00:05:10;46.85;;;15.27;;
67867;SDS011;54672;46.096;14.470;2022-11-27T00:07:36;52.65;;;15.93;;
67867;SDS011;54672;46.096;14.470;2022-11-27T00:10:01;46.40;;;14.45;;
67867;SDS011;54672;46.096;14.470;2022-11-27T00:12:27;41.30;;;14.45;;
67867;SDS011;54672;46.096;14.470;2022-11-27T00:14:53;36.95;;;14.98;;
67867;SDS011;54672;46.096;14.470;2022-11-27T00:17:18;31.65;;;14.70;;
67867;SDS011;54672;46.096;14.470;2022-11-27T00:19:43;44.33;;;15.65;;
67867;SDS011;54672;46.096;14.470;2022-11-27T00:22:09;46.22;;;15.02;;
67867;SDS011;54672;46.096;14.470;2022-11-27T00:24:34;49.45;;;16.05;;
67867;SDS011;54672;46.096;14.470;2022-11-27T00:27:00;52.95;;;15.23;;
67867;SDS011;54672;46.096;14.470;2022-11-27T00:29:25;50.65;;;16.35;;
67867;SDS011;54672;46.096;14.470;2022-11-27T00:31:53;42.42;;;15.80;;
67867;SDS011;54672;46.096;14.470;2022-11-27T00:34:20;44.00;;;16.42;;
67867;SDS011;54672;46.096;14.470;2022-11-27T00:36:45;65.60;;;19.42;;
67867;SDS011;54672;46.096;14.470;2022-11-27T00:39:10;44.35;;;16.42;;
67867;SDS011;54672;46.096;14.470;2022-11-27T00:41:36;49.53;;;17.50;;
67867;SDS011;54672;46.096;14.470;2022-11-27T00:44:02;30.90;;;13.55;;
67867;SDS011;54672;46.096;14.470;2022-11-27T00:46:29;46.80;;;13.63;;
67867;SDS011;54672;46.096;14.470;2022-11-27T00:48:56;42.25;;;13.48;;
67867;SDS011;54672;46.096;14.470;2022-11-27T00:51:22;38.30;;;13.77;;
67867;SDS011;54672;46.096;14.470;2022-11-27T00:53:49;49.38;;;14.57;;
67867;SDS011;54672;46.096;14.470;2022-11-27T00:56:16;49.20;;;15.02;;
67867;SDS011;54672;46.096;14.470;2022-11-27T00:58:43;50.65;;;15.93;;
67867;SDS011;54672;46.096;14.470;2022-11-27T01:01:12;61.00;;;14.93;;
67867;SDS011;54672;46.096;14.470;2022-11-27T01:03:40;42.03;;;14.05;;
67867;SDS011;54672;46.096;14.470;2022-11-27T01:06:05;31.00;;;14.10;;
67867;SDS011;54672;46.096;14.470;2022-11-27T01:08:32;58.08;;;14.88;;
67867;SDS011;54672;46.096;14.470;2022-11-27T01:10:57;58.15;;;14.13;;
67867;SDS011;54672;46.096;14.470;2022-11-27T01:13:24;50.35;;;15.07;;
67867;SDS011;54672;46.096;14.470;2022-11-27T01:18:24;57.65;;;14.25;;
67867;SDS011;54672;46.096;14.470;2022-11-27T01:20:53;46.75;;;13.75;;
67867;SDS011;54672;46.096;14.470;2022-11-27T01:23:19;39.63;;;14.77;;
67867;SDS011;54672;46.096;14.470;2022-11-27T01:25:45;41.92;;;13.43;;
67867;SDS011;54672;46.096;14.470;2022-11-27T01:28:11;33.75;;;14.48;;
67867;SDS011;54672;46.096;14.470;2022-11-27T01:30:37;42.80;;;15.02;;
67867;SDS011;54672;46.096;14.470;2022-11-27T01:33:03;40.63;;;14.02;;
67867;SDS011;54672;46.096;14.470;2022-11-27T01:35:28;52.78;;;15.38;;
67867;SDS011;54672;46.096;14.470;2022-11-27T01:37:54;55.53;;;15.07;;
67867;SDS011;54672;46.096;14.470;2022-11-27T01:40:20;33.55;;;13.85;;
67867;SDS011;54672;46.096;14.470;2022-11-27T01:42:45;30.85;;;13.93;;
67867;SDS011;54672;46.096;14.470;2022-11-27T01:45:11;34.20;;;13.13;;
67867;SDS011;54672;46.096;14.470;2022-11-27T01:47:44;32.03;;;13.30;;
67867;SDS011;54672;46.096;14.470;2022-11-27T01:50:14;33.67;;;12.63;;
67867;SDS011;54672;46.096;14.470;2022-11-27T01:52:44;37.75;;;14.30;;
67867;SDS011;54672;46.096;14.470;2022-11-27T01:55:14;28.27;;;12.45;;
67867;SDS011;54672;46.096;14.470;2022-11-27T01:57:48;26.02;;;11.70;;
67867;SDS011;54672;46.096;14.470;2022-11-27T02:00:17;24.42;;;11.57;;
67867;SDS011;54672;46.096;14.470;2022-11-27T02:02:43;23.98;;;10.45;;
67867;SDS011;54672;46.096;14.470;2022-11-27T02:05:10;32.95;;;12.20;;
67867;SDS011;54672;46.096;14.470;2022-11-27T02:07:40;29.00;;;12.18;;
67867;SDS011;54672;46.096;14.470;2022-11-27T02:10:07;25.17;;;11.38;;
67867;SDS011;54672;46.096;14.470;2022-11-27T02:12:36;27.13;;;12.13;;
67867;SDS011;54672;46.096;14.470;2022-11-27T02:15:33;24.80;;;11.05;;
67867;SDS011;54672;46.096;14.470;2022-11-27T02:18:09;25.00;;;11.07;;
67867;SDS011;54672;46.096;14.470;2022-11-27T02:34:01;38.42;;;13.50;;
67867;SDS011;54672;46.096;14.470;2022-11-27T02:36:35;41.00;;;13.57;;
67867;SDS011;54672;46.096;14.470;2022-11-27T02:39:06;36.75;;;13.70;;
67867;SDS011;54672;46.096;14.470;2022-11-27T02:41:48;39.08;;;14.07;;
67867;SDS011;54672;46.096;14.470;2022-11-27T02:44:21;36.97;;;13.73;;
67867;SDS011;54672;46.096;14.470;2022-11-27T02:46:48;30.95;;;13.77;;
67867;SDS011;54672;46.096;14.470;2022-11-27T02:49:15;28.35;;;12.77;;
67867;SDS011;54672;46.096;14.470;2022-11-27T02:51:44;30.75;;;13.30;;
67867;SDS011;54672;46.096;14.470;2022-11-27T02:54:17;45.80;;;14.40;;
67867;SDS011;54672;46.096;14.470;2022-11-27T02:56:47;40.45;;;14.45;;
67867;SDS011;54672;46.096;14.470;2022-11-27T02:59:15;31.48;;;14.00;;
67867;SDS011;54672;46.096;14.470;2022-11-27T03:01:50;35.80;;;13.90;;
67867;SDS011;54672;46.096;14.470;2022-11-27T03:04:20;42.95;;;13.55;;
67867;SDS011;54672;46.096;14.470;2022-11-27T03:06:52;45.80;;;14.38;;
67867;SDS011;54672;46.096;14.470;2022-11-27T03:10:05;35.90;;;14.18;;
67867;SDS011;54672;46.096;14.470;2022-11-27T03:12:11;32.60;;;14.68;;
67867;SDS011;54672;46.096;14.470;2022-11-27T03:14:38;43.10;;;15.10;;
67867;SDS011;54672;46.096;14.470;2022-11-27T03:22:14;49.65;;;15.70;;
67867;SDS011;54672;46.096;14.470;2022-11-27T03:24:40;34.40;;;13.95;;
67867;SDS011;54672;46.096;14.470;2022-11-27T03:27:06;48.63;;;15.45;;
67867;SDS011;54672;46.096;14.470;2022-11-27T03:29:38;43.95;;;15.25;;
67867;SDS011;54672;46.096;14.470;2022-11-27T03:32:08;34.83;;;14.10;;
67867;SDS011;54672;46.096;14.470;2022-11-27T03:34:33;57.65;;;14.98;;
67867;SDS011;54672;46.096;14.470;2022-11-27T03:37:00;50.00;;;15.43;;
67867;SDS011;54672;46.096;14.470;2022-11-27T03:39:26;61.60;;;16.95;;
67867;SDS011;54672;46.096;14.470;2022-11-27T03:44:30;37.30;;;14.52;;
67867;SDS011;54672;46.096;14.470;2022-11-27T03:52:50;43.13;;;14.27;;
67867;SDS011;54672;46.096;14.470;2022-11-27T03:58:08;44.90;;;14.63;;
67867;SDS011;54672;46.096;14.470;2022-11-27T04:00:39;36.83;;;15.18;;
67867;SDS011;54672;46.096;14.470;2022-11-27T04:03:11;32.70;;;14.68;;
67867;SDS011;54672;46.096;14.470;2022-11-27T04:05:37;32.95;;;14.85;;
67867;SDS011;54672;46.096;14.470;2022-11-27T04:08:03;41.65;;;14.60;;
67867;SDS011;54672;46.096;14.470;2022-11-27T04:10:28;41.58;;;15.43;;
67867;SDS011;54672;46.096;14.470;2022-11-27T04:12:54;27.92;;;14.30;;
67867;SDS011;54672;46.096;14.470;2022-11-27T04:15:19;33.05;;;14.73;;
67867;SDS011;54672;46.096;14.470;2022-11-27T04:17:45;32.05;;;13.60;;
67867;SDS011;54672;46.096;14.470;2022-11-27T04:20:13;27.42;;;12.75;;
67867;SDS011;54672;46.096;14.470;2022-11-27T04:22:39;27.13;;;13.55;;
67867;SDS011;54672;46.096;14.470;2022-11-27T04:25:05;28.88;;;13.57;;
67867;SDS011;54672;46.096;14.470;2022-11-27T04:27:31;26.95;;;13.70;;
67867;SDS011;54672;46.096;14.470;2022-11-27T04:29:56;35.28;;;14.57;;
67867;SDS011;54672;46.096;14.470;2022-11-27T04:32:22;30.35;;;13.80;;
67867;SDS011;54672;46.096;14.470;2022-11-27T04:34:47;33.05;;;14.52;;
67867;SDS011;54672;46.096;14.470;2022-11-27T04:37:12;24.95;;;13.07;;
67867;SDS011;54672;46.096;14.470;2022-11-27T04:39:38;29.15;;;14.43;;
67867;SDS011;54672;46.096;14.470;2022-11-27T04:42:03;27.25;;;14.02;;
67867;SDS011;54672;46.096;14.470;2022-11-27T04:44:29;30.15;;;12.82;;
67867;SDS011;54672;46.096;14.470;2022-11-27T04:46:54;24.83;;;12.20;;
67867;SDS011;54672;46.096;14.470;2022-11-27T04:49:20;26.50;;;12.80;;
67867;SDS011;54672;46.096;14.470;2022-11-27T04:51:45;28.48;;;12.18;;
67867;SDS011;54672;46.096;14.470;2022-11-27T04:54:11;31.88;;;14.13;;
67867;SDS011;54672;46.096;14.470;2022-11-27T04:56:36;31.70;;;14.15;;
67867;SDS011;54672;46.096;14.470;2022-11-27T04:59:02;30.40;;;12.98;;
67867;SDS011;54672;46.096;14.470;2022-11-27T05:01:29;27.15;;;13.48;;
67867;SDS011;54672;46.096;14.470;2022-11-27T05:03:54;34.58;;;14.25;;
67867;SDS011;54672;46.096;14.470;2022-11-27T05:06:19;31.05;;;15.02;;
67867;SDS011;54672;46.096;14.470;2022-11-27T05:08:46;29.50;;;13.90;;
67867;SDS011;54672;46.096;14.470;2022-11-27T05:11:13;34.75;;;14.55;;
67867;SDS011;54672;46.096;14.470;2022-11-27T05:13:40;38.60;;;14.23;;
67867;SDS011;54672;46.096;14.470;2022-11-27T05:16:06;29.98;;;14.10;;
67867;SDS011;54672;46.096;14.470;2022-11-27T05:18:31;35.33;;;14.38;;
67867;SDS011;54672;46.096;14.470;2022-11-27T05:20:58;31.27;;;13.90;;
67867;SDS011;54672;46.096;14.470;2022-11-27T05:23:25;37.60;;;16.13;;
67867;SDS011;54672;46.096;14.470;2022-11-27T05:25:51;47.15;;;15.70;;
67867;SDS011;54672;46.096;14.470;2022-11-27T05:28:16;42.85;;;15.57;;
67867;SDS011;54672;46.096;14.470;2022-11-27T05:30:42;48.63;;;15.45;;
67867;SDS011;54672;46.096;14.470;2022-11-27T05:33:07;38.67;;;15.10;;
67867;SDS011;54672;46.096;14.470;2022-11-27T05:35:33;55.45;;;15.73;;
67867;SDS011;54672;46.096;14.470;2022-11-27T05:37:58;37.42;;;15.00;;
67867;SDS011;54672;46.096;14.470;2022-11-27T05:40:23;46.78;;;16.15;;
67867;SDS011;54672;46.096;14.470;2022-11-27T05:42:49;38.90;;;14.80;;
67867;SDS011;54672;46.096;14.470;2022-11-27T05:45:14;53.20;;;15.00;;
67867;SDS011;54672;46.096;14.470;2022-11-27T05:47:40;39.75;;;14.18;;
67867;SDS011;54672;46.096;14.470;2022-11-27T05:50:05;52.47;;;15.32;;
67867;SDS011;54672;46.096;14.470;2022-11-27T05:52:31;42.72;;;14.05;;
67867;SDS011;54672;46.096;14.470;2022-11-27T05:54:57;35.97;;;14.80;;
67867;SDS011;54672;46.096;14.470;2022-11-27T05:57:22;45.50;;;15.20;;
67867;SDS011;54672;46.096;14.470;2022-11-27T05:59:47;37.47;;;15.82;;
67867;SDS011;54672;46.096;14.470;2022-11-27T06:02:13;58.88;;;15.95;;
67867;SDS011;54672;46.096;14.470;2022-11-27T06:04:38;40.00;;;15.98;;
67867;SDS011;54672;46.096;14.470;2022-11-27T06:07:04;39.72;;;15.25;;
67867;SDS011;54672;46.096;14.470;2022-11-27T06:09:29;36.38;;;14.85;;
67867;SDS011;54672;46.096;14.470;2022-11-27T06:11:54;32.30;;;15.65;;
67867;SDS011;54672;46.096;14.470;2022-11-27T06:14:20;34.63;;;15.15;;
67867;SDS011;54672;46.096;14.470;2022-11-27T06:16:46;33.10;;;13.10;;
67867;SDS011;54672;46.096;14.470;2022-11-27T06:19:11;53.03;;;15.43;;
67867;SDS011;54672;46.096;14.470;2022-11-27T06:21:36;31.00;;;14.43;;
67867;SDS011;54672;46.096;14.470;2022-11-27T06:24:02;38.65;;;15.32;;
67867;SDS011;54672;46.096;14.470;2022-11-27T06:26:28;37.42;;;14.75;;
67867;SDS011;54672;46.096;14.470;2022-11-27T06:28:56;30.25;;;14.18;;
67867;SDS011;54672;46.096;14.470;2022-11-27T06:31:24;29.92;;;12.98;;
67867;SDS011;54672;46.096;14.470;2022-11-27T06:33:51;33.15;;;13.85;;
67867;SDS011;54672;46.096;14.470;2022-11-27T06:36:18;42.05;;;13.07;;
67867;SDS011;54672;46.096;14.470;2022-11-27T06:38:44;27.83;;;12.00;;
67867;SDS011;54672;46.096;14.470;2022-11-27T06:41:14;42.30;;;14.73;;
67867;SDS011;54672;46.096;14.470;2022-11-27T06:43:41;46.47;;;13.68;;
67867;SDS011;54672;46.096;14.470;2022-11-27T06:46:10;60.15;;;13.68;;
67867;SDS011;54672;46.096;14.470;2022-11-27T06:48:37;46.63;;;13.65;;
67867;SDS011;54672;46.096;14.470;2022-11-27T06:51:04;49.90;;;13.18;;
67867;SDS011;54672;46.096;14.470;2022-11-27T06:53:31;112.97;;;16.17;;
67867;SDS011;54672;46.096;14.470;2022-11-27T06:55:58;64.45;;;14.10;;
67867;SDS011;54672;46.096;14.470;2022-11-27T06:58:26;68.88;;;13.88;;
67867;SDS011;54672;46.096;14.470;2022-11-27T07:00:55;54.33;;;13.38;;
67867;SDS011;54672;46.096;14.470;2022-11-27T07:03:21;49.75;;;13.63;;
67867;SDS011;54672;46.096;14.470;2022-11-27T07:05:47;74.32;;;13.57;;
67867;SDS011;54672;46.096;14.470;2022-11-27T07:08:12;109.40;;;15.63;;
67867;SDS011;54672;46.096;14.470;2022-11-27T07:10:38;75.22;;;14.73;;
67867;SDS011;54672;46.096;14.470;2022-11-27T07:13:03;48.92;;;12.25;;
67867;SDS011;54672;46.096;14.470;2022-11-27T07:15:29;47.03;;;12.55;;
67867;SDS011;54672;46.096;14.470;2022-11-27T07:17:54;45.33;;;12.70;;
67867;SDS011;54672;46.096;14.470;2022-11-27T07:20:19;48.88;;;13.60;;
67867;SDS011;54672;46.096;14.470;2022-11-27T07:22:45;46.28;;;12.90;;
67867;SDS011;54672;46.096;14.470;2022-11-27T07:25:10;47.90;;;13.85;;
67867;SDS011;54672;46.096;14.470;2022-11-27T07:27:36;62.17;;;13.07;;
67867;SDS011;54672;46.096;14.470;2022-11-27T07:30:01;42.47;;;10.55;;
67867;SDS011;54672;46.096;14.470;2022-11-27T07:32:27;64.10;;;14.60;;
67867;SDS011;54672;46.096;14.470;2022-11-27T07:34:52;46.97;;;15.20;;
67867;SDS011;54672;46.096;14.470;2022-11-27T07:37:18;61.80;;;17.83;;
67867;SDS011;54672;46.096;14.470;2022-11-27T07:39:43;69.20;;;18.02;;
67867;SDS011;54672;46.096;14.470;2022-11-27T07:42:08;59.17;;;18.05;;
67867;SDS011;54672;46.096;14.470;2022-11-27T07:44:34;55.33;;;16.55;;
67867;SDS011;54672;46.096;14.470;2022-11-27T07:46:59;46.72;;;16.42;;
67867;SDS011;54672;46.096;14.470;2022-11-27T07:49:25;50.80;;;15.75;;
67867;SDS011;54672;46.096;14.470;2022-11-27T07:51:50;50.70;;;17.08;;
67867;SDS011;54672;46.096;14.470;2022-11-27T07:54:15;52.17;;;17.52;;
67867;SDS011;54672;46.096;14.470;2022-11-27T07:56:41;53.50;;;16.48;;
67867;SDS011;54672;46.096;14.470;2022-11-27T07:59:06;62.20;;;15.63;;
67867;SDS011;54672;46.096;14.470;2022-11-27T08:01:32;40.33;;;14.75;;
67867;SDS011;54672;46.096;14.470;2022-11-27T08:03:57;37.58;;;15.10;;
67867;SDS011;54672;46.096;14.470;2022-11-27T08:06:23;34.08;;;14.27;;
67867;SDS011;54672;46.096;14.470;2022-11-27T08:08:50;28.80;;;12.68;;
67867;SDS011;54672;46.096;14.470;2022-11-27T08:11:33;32.22;;;13.88;;
67867;SDS011;54672;46.096;14.470;2022-11-27T08:14:03;35.33;;;14.52;;
67867;SDS011;54672;46.096;14.470;2022-11-27T08:16:31;35.75;;;14.38;;
67867;SDS011;54672;46.096;14.470;2022-11-27T08:18:58;44.17;;;14.68;;
67867;SDS011;54672;46.096;14.470;2022-11-27T08:21:23;38.17;;;15.43;;
67867;SDS011;54672;46.096;14.470;2022-11-27T08:23:49;34.20;;;15.48;;
67867;SDS011;54672;46.096;14.470;2022-11-27T08:26:15;35.17;;;16.42;;
67867;SDS011;54672;46.096;14.470;2022-11-27T08:28:41;38.05;;;15.27;;
67867;SDS011;54672;46.096;14.470;2022-11-27T08:31:07;34.33;;;15.45;;
67867;SDS011;54672;46.096;14.470;2022-11-27T08:33:36;26.90;;;13.02;;
67867;SDS011;54672;46.096;14.470;2022-11-27T08:36:01;38.28;;;15.73;;
67867;SDS011;54672;46.096;14.470;2022-11-27T08:38:27;31.15;;;14.50;;
67867;SDS011;54672;46.096;14.470;2022-11-27T08:40:56;32.40;;;14.77;;
67867;SDS011;54672;46.096;14.470;2022-11-27T08:43:24;40.03;;;16.88;;
67867;SDS011;54672;46.096;14.470;2022-11-27T08:45:50;37.22;;;15.73;;
67867;SDS011;54672;46.096;14.470;2022-11-27T08:48:16;30.40;;;13.88;;
67867;SDS011;54672;46.096;14.470;2022-11-27T08:50:41;41.80;;;18.17;;
67867;SDS011;54672;46.096;14.470;2022-11-27T08:53:07;44.22;;;18.00;;
67867;SDS011;54672;46.096;14.470;2022-11-27T08:55:33;44.00;;;17.33;;
67867;SDS011;54672;46.096;14.470;2022-11-27T08:57:58;38.20;;;15.32;;
67867;SDS011;54672;46.096;14.470;2022-11-27T09:00:23;41.00;;;16.90;;
67867;SDS011;54672;46.096;14.470;2022-11-27T09:02:49;62.55;;;15.60;;
67867;SDS011;54672;46.096;14.470;2022-11-27T09:05:14;58.80;;;17.17;;
67867;SDS011;54672;46.096;14.470;2022-11-27T09:07:40;66.00;;;15.75;;
67867;SDS011;54672;46.096;14.470;2022-11-27T09:10:06;63.58;;;16.98;;
67867;SDS011;54672;46.096;14.470;2022-11-27T09:12:32;69.88;;;17.45;;
67867;SDS011;54672;46.096;14.470;2022-11-27T09:14:57;71.50;;;18.40;;
67867;SDS011;54672;46.096;14.470;2022-11-27T09:17:23;47.75;;;16.05;;
67867;SDS011;54672;46.096;14.470;2022-11-27T09:19:48;42.65;;;15.00;;
67867;SDS011;54672;46.096;14.470;2022-11-27T09:22:13;44.40;;;16.77;;
67867;SDS011;54672;46.096;14.470;2022-11-27T09:24:39;36.03;;;16.35;;
67867;SDS011;54672;46.096;14.470;2022-11-27T09:27:04;42.70;;;14.45;;
67867;SDS011;54672;46.096;14.470;2022-11-27T09:29:29;47.58;;;15.38;;
67867;SDS011;54672;46.096;14.470;2022-11-27T09:31:57;45.22;;;15.80;;
67867;SDS011;54672;46.096;14.470;2022-11-27T09:34:22;33.72;;;14.43;;
67867;SDS011;54672;46.096;14.470;2022-11-27T09:36:48;50.28;;;15.20;;
67867;SDS011;54672;46.096;14.470;2022-11-27T09:39:14;38.22;;;16.33;;
67867;SDS011;54672;46.096;14.470;2022-11-27T09:41:53;31.38;;;13.63;;
67867;SDS011;54672;46.096;14.470;2022-11-27T09:44:29;33.30;;;14.98;;
67867;SDS011;54672;46.096;14.470;2022-11-27T09:47:47;44.83;;;17.55;;
67867;SDS011;54672;46.096;14.470;2022-11-27T09:49:59;48.58;;;15.32;;
67867;SDS011;54672;46.096;14.470;2022-11-27T09:57:57;31.48;;;14.00;;
67867;SDS011;54672;46.096;14.470;2022-11-27T10:00:28;28.58;;;13.93;;
67867;SDS011;54672;46.096;14.470;2022-11-27T10:02:54;32.20;;;14.85;;
67867;SDS011;54672;46.096;14.470;2022-11-27T10:05:21;27.35;;;14.10;;
67867;SDS011;54672;46.096;14.470;2022-11-27T10:16:42;30.90;;;13.65;;
67867;SDS011;54672;46.096;14.470;2022-11-27T10:24:39;25.58;;;13.18;;
67867;SDS011;54672;46.096;14.470;2022-11-27T10:27:15;27.17;;;12.68;;
67867;SDS011;54672;46.096;14.470;2022-11-27T10:30:03;23.58;;;11.60;;
67867;SDS011;54672;46.096;14.470;2022-11-27T10:32:50;23.15;;;11.13;;
67867;SDS011;54672;46.096;14.470;2022-11-27T10:35:19;22.88;;;11.45;;
67867;SDS011;54672;46.096;14.470;2022-11-27T10:37:54;25.63;;;12.68;;
67867;SDS011;54672;46.096;14.470;2022-11-27T10:40:31;27.58;;;11.98;;
67867;SDS011;54672;46.096;14.470;2022-11-27T10:45:53;23.85;;;10.95;;
67867;SDS011;54672;46.096;14.470;2022-11-27T10:48:20;21.08;;;9.43;;
67867;SDS011;54672;46.096;14.470;2022-11-27T10:50:46;20.85;;;10.77;;
67867;SDS011;54672;46.096;14.470;2022-11-27T10:53:29;21.80;;;11.05;;
67867;SDS011;54672;46.096;14.470;2022-11-27T10:58:40;23.88;;;11.52;;
67867;SDS011;54672;46.096;14.470;2022-11-27T11:01:11;24.90;;;11.55;;
67867;SDS011;54672;46.096;14.470;2022-11-27T11:03:38;22.58;;;11.35;;
67867;SDS011;54672;46.096;14.470;2022-11-27T11:06:04;24.48;;;10.90;;
67867;SDS011;54672;46.096;14.470;2022-11-27T11:08:32;21.77;;;11.23;;
67867;SDS011;54672;46.096;14.470;2022-11-27T11:16:12;22.88;;;11.18;;
67867;SDS011;54672;46.096;14.470;2022-11-27T11:18:42;20.95;;;9.93;;
67867;SDS011;54672;46.096;14.470;2022-11-27T11:21:16;23.63;;;11.57;;
67867;SDS011;54672;46.096;14.470;2022-11-27T11:23:52;27.05;;;12.23;;
67867;SDS011;54672;46.096;14.470;2022-11-27T11:26:36;46.28;;;20.25;;
67867;SDS011;54672;46.096;14.470;2022-11-27T11:29:05;25.25;;;13.23;;
67867;SDS011;54672;46.096;14.470;2022-11-27T11:31:41;25.20;;;12.43;;
67867;SDS011;54672;46.096;14.470;2022-11-27T11:37:03;30.05;;;14.10;;
67867;SDS011;54672;46.096;14.470;2022-11-27T11:39:33;25.70;;;12.65;;
67867;SDS011;54672;46.096;14.470;2022-11-27T11:42:18;26.83;;;13.13;;
67867;SDS011;54672;46.096;14.470;2022-11-27T11:44:48;26.70;;;13.38;;
67867;SDS011;54672;46.096;14.470;2022-11-27T11:47:16;24.83;;;12.20;;
67867;SDS011;54672;46.096;14.470;2022-11-27T11:49:44;27.75;;;11.50;;
67867;SDS011;54672;46.096;14.470;2022-11-27T11:52:18;27.33;;;14.13;;
67867;SDS011;54672;46.096;14.470;2022-11-27T11:57:55;24.08;;;12.45;;
67867;SDS011;54672;46.096;14.470;2022-11-27T12:00:27;27.35;;;13.10;;
67867;SDS011;54672;46.096;14.470;2022-11-27T12:11:14;22.40;;;12.23;;
67867;SDS011;54672;46.096;14.470;2022-11-27T12:22:00;27.95;;;14.10;;
67867;SDS011;54672;46.096;14.470;2022-11-27T12:25:39;23.73;;;12.32;;
67867;SDS011;54672;46.096;14.470;2022-11-27T12:31:10;25.80;;;13.45;;
67867;SDS011;54672;46.096;14.470;2022-11-27T12:47:03;29.40;;;14.52;;
67867;SDS011;54672;46.096;14.470;2022-11-27T12:49:42;26.60;;;13.80;;
67867;SDS011;54672;46.096;14.470;2022-11-27T12:57:18;28.13;;;13.68;;
67867;SDS011;54672;46.096;14.470;2022-11-27T13:02:22;29.40;;;15.48;;
67867;SDS011;54672;46.096;14.470;2022-11-27T13:05:14;30.48;;;14.90;;
67867;SDS011;54672;46.096;14.470;2022-11-27T13:12:42;26.48;;;14.45;;
67867;SDS011;54672;46.096;14.470;2022-11-27T13:17:56;32.25;;;15.88;;
67867;SDS011;54672;46.096;14.470;2022-11-27T13:20:31;30.23;;;15.70;;
67867;SDS011;54672;46.096;14.470;2022-11-27T13:23:00;29.30;;;15.47;;
67867;SDS011;54672;46.096;14.470;2022-11-27T13:25:26;31.42;;;15.88;;
67867;SDS011;54672;46.096;14.470;2022-11-27T13:27:54;33.05;;;17.77;;
67867;SDS011;54672;46.096;14.470;2022-11-27T13:30:21;31.30;;;16.30;;
67867;SDS011;54672;46.096;14.470;2022-11-27T13:32:52;29.15;;;15.77;;
67867;SDS011;54672;46.096;14.470;2022-11-27T13:40:45;27.60;;;14.95;;
67867;SDS011;54672;46.096;14.470;2022-11-27T13:46:00;26.17;;;13.85;;
67867;SDS011;54672;46.096;14.470;2022-11-27T13:48:32;29.60;;;15.38;;
67867;SDS011;54672;46.096;14.470;2022-11-27T13:53:46;27.10;;;14.45;;
67867;SDS011;54672;46.096;14.470;2022-11-27T13:56:11;29.73;;;14.57;;
67867;SDS011;54672;46.096;14.470;2022-11-27T13:58:40;28.27;;;15.07;;
67867;SDS011;54672;46.096;14.470;2022-11-27T14:01:10;29.75;;;15.00;;
67867;SDS011;54672;46.096;14.470;2022-11-27T14:03:37;30.67;;;14.90;;
67867;SDS011;54672;46.096;14.470;2022-11-27T14:06:02;29.00;;;14.05;;
67867;SDS011;54672;46.096;14.470;2022-11-27T14:08:57;28.23;;;14.32;;
67867;SDS011;54672;46.096;14.470;2022-11-27T14:14:12;28.15;;;15.48;;
67867;SDS011;54672;46.096;14.470;2022-11-27T14:16:51;29.00;;;14.85;;
67867;SDS011;54672;46.096;14.470;2022-11-27T14:19:23;31.23;;;14.60;;
67867;SDS011;54672;46.096;14.470;2022-11-27T14:21:59;26.35;;;14.27;;
67867;SDS011;54672;46.096;14.470;2022-11-27T14:24:32;25.67;;;13.95;;
67867;SDS011;54672;46.096;14.470;2022-11-27T14:26:58;29.08;;;14.77;;
67867;SDS011;54672;46.096;14.470;2022-11-27T14:29:24;33.22;;;15.77;;
67867;SDS011;54672;46.096;14.470;2022-11-27T14:31:56;31.67;;;15.75;;
67867;SDS011;54672;46.096;14.470;2022-11-27T14:34:31;35.03;;;16.33;;
67867;SDS011;54672;46.096;14.470;2022-11-27T14:36:59;30.67;;;16.55;;
67867;SDS011;54672;46.096;14.470;2022-11-27T14:39:29;31.80;;;15.93;;
67867;SDS011;54672;46.096;14.470;2022-11-27T14:41:59;33.83;;;16.42;;
67867;SDS011;54672;46.096;14.470;2022-11-27T14:44:34;31.70;;;15.55;;
67867;SDS011;54672;46.096;14.470;2022-11-27T14:47:01;36.33;;;16.10;;
67867;SDS011;54672;46.096;14.470;2022-11-27T14:49:29;34.58;;;15.60;;
67867;SDS011;54672;46.096;14.470;2022-11-27T14:51:57;31.38;;;15.95;;
67867;SDS011;54672;46.096;14.470;2022-11-27T14:54:29;28.42;;;15.02;;
67867;SDS011;54672;46.096;14.470;2022-11-27T14:56:57;32.35;;;16.17;;
67867;SDS011;54672;46.096;14.470;2022-11-27T14:59:23;32.65;;;17.27;;
67867;SDS011;54672;46.096;14.470;2022-11-27T15:02:02;40.58;;;18.95;;
67867;SDS011;54672;46.096;14.470;2022-11-27T15:04:38;39.15;;;19.42;;
67867;SDS011;54672;46.096;14.470;2022-11-27T15:07:18;55.63;;;25.83;;
67867;SDS011;54672;46.096;14.470;2022-11-27T15:09:50;84.47;;;38.97;;
67867;SDS011;54672;46.096;14.470;2022-11-27T15:12:20;93.63;;;43.50;;
67867;SDS011;54672;46.096;14.470;2022-11-27T15:14:57;137.18;;;65.30;;
67867;SDS011;54672;46.096;14.470;2022-11-27T15:17:27;142.25;;;66.57;;
67867;SDS011;54672;46.096;14.470;2022-11-27T15:19:54;249.10;;;118.63;;
67867;SDS011;54672;46.096;14.470;2022-11-27T15:22:21;221.05;;;101.28;;
67867;SDS011;54672;46.096;14.470;2022-11-27T15:24:56;170.13;;;80.50;;
67867;SDS011;54672;46.096;14.470;2022-11-27T15:27:23;173.88;;;75.97;;
67867;SDS011;54672;46.096;14.470;2022-11-27T15:32:18;374.02;;;158.57;;
67867;SDS011;54672;46.096;14.470;2022-11-27T15:34:45;261.95;;;117.63;;
67867;SDS011;54672;46.096;14.470;2022-11-27T15:37:18;160.05;;;73.25;;
67867;SDS011;54672;46.096;14.470;2022-11-27T15:39:51;182.30;;;82.95;;
67867;SDS011;54672;46.096;14.470;2022-11-27T15:42:19;267.75;;;119.68;;
67867;SDS011;54672;46.096;14.470;2022-11-27T15:44:45;249.13;;;112.03;;
67867;SDS011;54672;46.096;14.470;2022-11-27T15:47:22;261.15;;;117.78;;
67867;SDS011;54672;46.096;14.470;2022-11-27T15:49:50;206.80;;;92.57;;
67867;SDS011;54672;46.096;14.470;2022-11-27T15:52:16;127.88;;;59.53;;
67867;SDS011;54672;46.096;14.470;2022-11-27T15:54:42;74.40;;;34.00;;
67867;SDS011;54672;46.096;14.470;2022-11-27T15:57:08;54.75;;;24.55;;
67867;SDS011;54672;46.096;14.470;2022-11-27T15:59:33;48.97;;;24.02;;
67867;SDS011;54672;46.096;14.470;2022-11-27T16:01:59;48.95;;;22.15;;
67867;SDS011;54672;46.096;14.470;2022-11-27T16:04:24;52.53;;;22.05;;
67867;SDS011;54672;46.096;14.470;2022-11-27T16:06:50;48.83;;;22.13;;
67867;SDS011;54672;46.096;14.470;2022-11-27T16:09:15;45.97;;;21.17;;
67867;SDS011;54672;46.096;14.470;2022-11-27T16:11:40;41.15;;;20.42;;
67867;SDS011;54672;46.096;14.470;2022-11-27T16:14:06;52.22;;;23.05;;
67867;SDS011;54672;46.096;14.470;2022-11-27T16:16:31;63.72;;;28.65;;
67867;SDS011;54672;46.096;14.470;2022-11-27T16:18:58;61.90;;;28.73;;
67867;SDS011;54672;46.096;14.470;2022-11-27T16:21:25;55.83;;;25.05;;
67867;SDS011;54672;46.096;14.470;2022-11-27T16:23:51;80.18;;;33.03;;
67867;SDS011;54672;46.096;14.470;2022-11-27T16:26:21;76.93;;;32.75;;
67867;SDS011;54672;46.096;14.470;2022-11-27T16:28:46;136.40;;;54.90;;